This is the latest recevied weather packets stored in our database for station/object ZS1DFR-1. If no packets are shown the sender has not sent any weather packets the latest 10 day(s).
| Time | Temp. | Humidity | Pressure | Rain* | Wind** | Luminosity | Snow |
|---|---|---|---|---|---|---|---|
| 1777456403 | 18.89° C | 53% | 1021.1 hPa | 0 mm | - | - | - |
| 1777455503 | 18.89° C | 53% | 1021.1 hPa | 0 mm | - | - | - |
| 1777454603 | 18.33° C | 57% | 1021.4 hPa | 0 mm | - | - | - |
| 1777453703 | 18.33° C | 57% | 1021.4 hPa | 0 mm | - | - | - |
| 1777452803 | 17.78° C | 60% | 1021.7 hPa | 0 mm | - | - | - |
| 1777451903 | 17.78° C | 60% | 1021.7 hPa | 0 mm | - | - | - |
| 1777451003 | 17.22° C | 67% | 1022.1 hPa | 0 mm | - | - | - |
| 1777450103 | 17.22° C | 67% | 1022.1 hPa | 0 mm | - | - | - |
| 1777449203 | 15.56° C | 73% | 1022.1 hPa | 0 mm | - | - | - |
| 1777448303 | 15.56° C | 73% | 1022.1 hPa | 0 mm | - | - | - |
| 1777447403 | 15° C | 74% | 1022 hPa | 0 mm | - | - | - |
| 1777446503 | 15° C | 74% | 1022 hPa | 0 mm | - | - | - |
| 1777445603 | 13.33° C | 80% | 1021.7 hPa | 0 mm | - | - | - |
| 1777444703 | 13.33° C | 80% | 1021.7 hPa | 0 mm | - | - | - |
| 1777443840 | 11.67° C | 86% | 1021.7 hPa | 0 mm | - | - | - |
| 1777442903 | 11.67° C | 86% | 1021.7 hPa | 0 mm | - | - | - |
| 1777442003 | 10.56° C | 86% | 1021.5 hPa | 0 mm | - | - | - |
| 1777441102 | 10.56° C | 86% | 1021.5 hPa | 0 mm | - | - | - |
| 1777440202 | 11.11° C | 84% | 1021.5 hPa | 0 mm | - | - | - |
| 1777439303 | 11.11° C | 84% | 1021.5 hPa | 0 mm | - | - | - |
| 1777438402 | 10.56° C | 88% | 1021.6 hPa | 0 mm | - | - | - |
| 1777437502 | 10.56° C | 88% | 1021.6 hPa | 0 mm | - | - | - |
| 1777436603 | 11.11° C | 87% | 1021.5 hPa | 0 mm | - | - | - |
| 1777435702 | 11.11° C | 87% | 1021.5 hPa | 0 mm | - | - | - |
| 1777434802 | 11.11° C | 91% | 1021.5 hPa | 0 mm | - | - | - |
* Rain latest hour (hover to see other rain measurements)
** Current wind speed in m/s (hover to see current wind gust speed)